sensor_id;sensor_type;location;lat;lon;timestamp;pressure;altitude;pressure_sealevel;temperature;humidity
52032;BME280;38044;45.148;39.604;2023-06-19T00:00:08;100447.53;;;20.20;88.91
52032;BME280;38044;45.148;39.604;2023-06-19T00:02:42;100440.00;;;20.13;89.39
52032;BME280;38044;45.148;39.604;2023-06-19T00:05:09;100439.66;;;20.15;89.25
52032;BME280;38044;45.148;39.604;2023-06-19T00:07:37;100445.13;;;20.15;89.20
52032;BME280;38044;45.148;39.604;2023-06-19T00:10:05;100445.66;;;20.05;89.38
52032;BME280;38044;45.148;39.604;2023-06-19T00:12:32;100447.53;;;20.00;89.44
52032;BME280;38044;45.148;39.604;2023-06-19T00:14:57;100454.53;;;20.17;88.38
52032;BME280;38044;45.148;39.604;2023-06-19T00:17:23;100443.94;;;19.96;88.94
52032;BME280;38044;45.148;39.604;2023-06-19T00:19:52;100452.63;;;20.02;89.40
52032;BME280;38044;45.148;39.604;2023-06-19T00:22:18;100449.03;;;19.98;89.32
52032;BME280;38044;45.148;39.604;2023-06-19T00:24:43;100453.97;;;19.92;89.67
52032;BME280;38044;45.148;39.604;2023-06-19T00:27:09;100449.75;;;19.95;89.84
52032;BME280;38044;45.148;39.604;2023-06-19T00:29:35;100452.81;;;19.93;89.69
52032;BME280;38044;45.148;39.604;2023-06-19T00:32:01;100455.50;;;19.90;89.73
52032;BME280;38044;45.148;39.604;2023-06-19T00:34:29;100457.56;;;19.96;89.70
52032;BME280;38044;45.148;39.604;2023-06-19T00:36:55;100459.69;;;20.03;89.55
52032;BME280;38044;45.148;39.604;2023-06-19T00:39:24;100460.16;;;19.89;89.75
52032;BME280;38044;45.148;39.604;2023-06-19T00:41:54;100457.69;;;19.84;90.08
52032;BME280;38044;45.148;39.604;2023-06-19T00:44:21;100463.22;;;19.88;90.15
52032;BME280;38044;45.148;39.604;2023-06-19T00:46:51;100460.47;;;20.03;88.83
52032;BME280;38044;45.148;39.604;2023-06-19T00:49:19;100471.84;;;19.90;89.33
52032;BME280;38044;45.148;39.604;2023-06-19T00:51:45;100466.91;;;19.95;88.80
52032;BME280;38044;45.148;39.604;2023-06-19T00:54:11;100479.53;;;19.84;89.08
52032;BME280;38044;45.148;39.604;2023-06-19T00:56:37;100481.97;;;19.89;89.11
52032;BME280;38044;45.148;39.604;2023-06-19T00:59:15;100485.28;;;19.98;88.76
52032;BME280;38044;45.148;39.604;2023-06-19T01:01:42;100476.72;;;20.00;88.36
52032;BME280;38044;45.148;39.604;2023-06-19T01:04:08;100490.38;;;20.00;88.37
52032;BME280;38044;45.148;39.604;2023-06-19T01:06:45;100487.56;;;19.96;88.17
52032;BME280;38044;45.148;39.604;2023-06-19T01:09:15;100497.63;;;19.92;88.30
52032;BME280;38044;45.148;39.604;2023-06-19T01:11:48;100500.63;;;19.87;88.26
52032;BME280;38044;45.148;39.604;2023-06-19T01:14:23;100485.50;;;19.74;89.00
52032;BME280;38044;45.148;39.604;2023-06-19T01:16:51;100477.84;;;19.79;88.53
52032;BME280;38044;45.148;39.604;2023-06-19T01:19:21;100502.19;;;19.88;88.23
52032;BME280;38044;45.148;39.604;2023-06-19T01:21:47;100507.66;;;19.88;88.19
52032;BME280;38044;45.148;39.604;2023-06-19T01:24:14;100502.19;;;19.88;87.92
52032;BME280;38044;45.148;39.604;2023-06-19T01:26:40;100507.50;;;19.81;88.28
52032;BME280;38044;45.148;39.604;2023-06-19T01:29:08;100502.50;;;19.67;88.66
52032;BME280;38044;45.148;39.604;2023-06-19T01:31:50;100507.41;;;19.62;89.09
52032;BME280;38044;45.148;39.604;2023-06-19T01:34:20;100511.19;;;19.57;89.34
52032;BME280;38044;45.148;39.604;2023-06-19T01:36:48;100502.91;;;19.53;89.46
52032;BME280;38044;45.148;39.604;2023-06-19T01:39:18;100510.66;;;19.51;89.57
52032;BME280;38044;45.148;39.604;2023-06-19T01:41:45;100515.22;;;19.47;89.94
52032;BME280;38044;45.148;39.604;2023-06-19T01:44:12;100521.41;;;19.44;90.01
52032;BME280;38044;45.148;39.604;2023-06-19T01:46:38;100518.13;;;19.39;90.16
52032;BME280;38044;45.148;39.604;2023-06-19T01:49:10;100513.03;;;19.37;90.46
52032;BME280;38044;45.148;39.604;2023-06-19T01:51:36;100522.97;;;19.45;89.99
52032;BME280;38044;45.148;39.604;2023-06-19T01:54:02;100516.09;;;19.51;89.76
52032;BME280;38044;45.148;39.604;2023-06-19T01:56:30;100524.09;;;19.60;89.72
52032;BME280;38044;45.148;39.604;2023-06-19T01:58:56;100528.06;;;19.63;89.22
52032;BME280;38044;45.148;39.604;2023-06-19T02:01:22;100528.50;;;19.65;89.14
52032;BME280;38044;45.148;39.604;2023-06-19T02:03:48;100532.25;;;19.72;89.02
52032;BME280;38044;45.148;39.604;2023-06-19T02:06:14;100520.72;;;20.14;87.07
52032;BME280;38044;45.148;39.604;2023-06-19T02:08:41;100524.75;;;20.40;85.72
52032;BME280;38044;45.148;39.604;2023-06-19T02:11:07;100522.50;;;20.61;84.60
52032;BME280;38044;45.148;39.604;2023-06-19T02:13:33;100537.22;;;20.57;84.98
52032;BME280;38044;45.148;39.604;2023-06-19T02:15:59;100526.84;;;20.27;86.09
52032;BME280;38044;45.148;39.604;2023-06-19T02:18:25;100534.88;;;20.20;86.88
52032;BME280;38044;45.148;39.604;2023-06-19T02:20:51;100535.75;;;20.24;86.67
52032;BME280;38044;45.148;39.604;2023-06-19T02:23:17;100527.19;;;20.25;86.75
52032;BME280;38044;45.148;39.604;2023-06-19T02:25:42;100532.16;;;20.39;86.52
52032;BME280;38044;45.148;39.604;2023-06-19T02:28:08;100532.75;;;20.29;86.17
52032;BME280;38044;45.148;39.604;2023-06-19T02:30:34;100529.91;;;20.25;86.77
52032;BME280;38044;45.148;39.604;2023-06-19T02:33:00;100536.59;;;20.28;86.80
52032;BME280;38044;45.148;39.604;2023-06-19T02:35:26;100534.31;;;20.30;85.99
52032;BME280;38044;45.148;39.604;2023-06-19T02:37:52;100528.94;;;20.34;85.42
52032;BME280;38044;45.148;39.604;2023-06-19T02:40:18;100537.84;;;20.50;84.65
52032;BME280;38044;45.148;39.604;2023-06-19T02:42:44;100541.66;;;20.45;85.12
52032;BME280;38044;45.148;39.604;2023-06-19T02:45:10;100540.94;;;20.48;85.22
52032;BME280;38044;45.148;39.604;2023-06-19T02:47:36;100531.53;;;20.46;85.52
52032;BME280;38044;45.148;39.604;2023-06-19T02:50:03;100527.78;;;20.35;85.69
52032;BME280;38044;45.148;39.604;2023-06-19T02:52:29;100537.03;;;20.30;86.18
52032;BME280;38044;45.148;39.604;2023-06-19T02:54:55;100525.06;;;20.35;86.11
52032;BME280;38044;45.148;39.604;2023-06-19T02:57:21;100525.59;;;20.60;85.20
52032;BME280;38044;45.148;39.604;2023-06-19T02:59:47;100527.38;;;20.72;84.83
52032;BME280;38044;45.148;39.604;2023-06-19T03:02:13;100534.50;;;20.76;84.88
52032;BME280;38044;45.148;39.604;2023-06-19T03:04:39;100531.75;;;20.96;83.43
52032;BME280;38044;45.148;39.604;2023-06-19T03:07:06;100533.06;;;21.25;82.79
52032;BME280;38044;45.148;39.604;2023-06-19T03:09:32;100522.84;;;21.41;80.91
52032;BME280;38044;45.148;39.604;2023-06-19T03:11:58;100537.75;;;21.70;80.52
52032;BME280;38044;45.148;39.604;2023-06-19T03:14:24;100524.59;;;22.06;78.73
52032;BME280;38044;45.148;39.604;2023-06-19T03:16:50;100521.00;;;22.55;77.51
52032;BME280;38044;45.148;39.604;2023-06-19T03:19:15;100520.94;;;22.85;74.97
52032;BME280;38044;45.148;39.604;2023-06-19T03:21:41;100531.16;;;23.26;74.00
52032;BME280;38044;45.148;39.604;2023-06-19T03:24:07;100525.78;;;23.40;71.95
52032;BME280;38044;45.148;39.604;2023-06-19T03:26:33;100523.22;;;24.20;70.45
52032;BME280;38044;45.148;39.604;2023-06-19T03:28:59;100528.66;;;24.97;67.29
52032;BME280;38044;45.148;39.604;2023-06-19T03:31:25;100528.25;;;26.20;63.29
52032;BME280;38044;45.148;39.604;2023-06-19T03:33:50;100524.69;;;27.11;59.74
52032;BME280;38044;45.148;39.604;2023-06-19T03:36:16;100537.84;;;27.49;57.41
52032;BME280;38044;45.148;39.604;2023-06-19T03:38:42;100531.72;;;26.46;60.32
52032;BME280;38044;45.148;39.604;2023-06-19T03:41:08;100525.59;;;25.31;64.53
52032;BME280;38044;45.148;39.604;2023-06-19T03:43:34;100534.84;;;24.62;65.90
52032;BME280;38044;45.148;39.604;2023-06-19T03:46:00;100531.38;;;24.02;67.70
52032;BME280;38044;45.148;39.604;2023-06-19T03:48:25;100539.22;;;23.52;69.09
52032;BME280;38044;45.148;39.604;2023-06-19T03:50:51;100535.13;;;23.32;69.71
52032;BME280;38044;45.148;39.604;2023-06-19T03:53:17;100539.22;;;23.52;69.73
52032;BME280;38044;45.148;39.604;2023-06-19T03:55:43;100539.56;;;24.65;67.17
52032;BME280;38044;45.148;39.604;2023-06-19T03:58:10;100532.91;;;26.45;61.91
52032;BME280;38044;45.148;39.604;2023-06-19T04:00:35;100533.31;;;27.21;59.56
52032;BME280;38044;45.148;39.604;2023-06-19T04:03:02;100545.53;;;27.72;57.96
52032;BME280;38044;45.148;39.604;2023-06-19T04:05:28;100538.28;;;27.89;56.70
52032;BME280;38044;45.148;39.604;2023-06-19T04:07:54;100538.19;;;27.99;56.39
52032;BME280;38044;45.148;39.604;2023-06-19T04:10:20;100544.69;;;28.54;55.58
52032;BME280;38044;45.148;39.604;2023-06-19T04:12:47;100534.81;;;28.84;54.11
52032;BME280;38044;45.148;39.604;2023-06-19T04:15:13;100551.53;;;29.04;53.78
52032;BME280;38044;45.148;39.604;2023-06-19T04:17:39;100553.69;;;29.70;52.71
52032;BME280;38044;45.148;39.604;2023-06-19T04:20:05;100542.91;;;30.19;50.99
52032;BME280;38044;45.148;39.604;2023-06-19T04:22:41;100543.44;;;30.70;49.56
52032;BME280;38044;45.148;39.604;2023-06-19T04:25:09;100550.50;;;31.11;48.73
52032;BME280;38044;45.148;39.604;2023-06-19T04:27:36;100549.53;;;31.18;48.78
52032;BME280;38044;45.148;39.604;2023-06-19T04:30:03;100537.91;;;31.56;47.72
52032;BME280;38044;45.148;39.604;2023-06-19T04:32:30;100551.69;;;31.76;48.44
52032;BME280;38044;45.148;39.604;2023-06-19T04:34:56;100548.91;;;31.76;47.34
52032;BME280;38044;45.148;39.604;2023-06-19T04:37:22;100552.56;;;31.73;47.59
52032;BME280;38044;45.148;39.604;2023-06-19T04:39:48;100541.28;;;31.63;48.65
52032;BME280;38044;45.148;39.604;2023-06-19T04:42:16;100555.41;;;32.31;46.38
52032;BME280;38044;45.148;39.604;2023-06-19T04:44:49;100549.84;;;32.31;46.38
52032;BME280;38044;45.148;39.604;2023-06-19T04:47:21;100560.63;;;32.71;47.07
52032;BME280;38044;45.148;39.604;2023-06-19T04:49:47;100558.16;;;32.73;45.62
52032;BME280;38044;45.148;39.604;2023-06-19T04:52:13;100559.75;;;32.45;46.30
52032;BME280;38044;45.148;39.604;2023-06-19T04:54:39;100559.47;;;32.56;46.29
52032;BME280;38044;45.148;39.604;2023-06-19T04:57:05;100554.72;;;32.82;45.29
52032;BME280;38044;45.148;39.604;2023-06-19T04:59:32;100557.94;;;32.55;46.80
52032;BME280;38044;45.148;39.604;2023-06-19T05:01:59;100543.22;;;32.12;45.52
52032;BME280;38044;45.148;39.604;2023-06-19T05:04:25;100553.06;;;32.84;45.83
52032;BME280;38044;45.148;39.604;2023-06-19T05:06:50;100549.38;;;32.87;45.05
52032;BME280;38044;45.148;39.604;2023-06-19T05:09:17;100542.25;;;32.73;45.51
52032;BME280;38044;45.148;39.604;2023-06-19T05:11:43;100557.97;;;33.31;44.86
52032;BME280;38044;45.148;39.604;2023-06-19T05:14:09;100560.63;;;32.96;44.20
52032;BME280;38044;45.148;39.604;2023-06-19T05:16:35;100557.97;;;33.31;44.07
52032;BME280;38044;45.148;39.604;2023-06-19T05:19:01;100554.16;;;33.25;43.15
52032;BME280;38044;45.148;39.604;2023-06-19T05:21:26;100555.72;;;33.39;43.62
52032;BME280;38044;45.148;39.604;2023-06-19T05:23:53;100552.69;;;33.46;43.88
52032;BME280;38044;45.148;39.604;2023-06-19T05:26:19;100557.47;;;33.71;43.76
52032;BME280;38044;45.148;39.604;2023-06-19T05:28:46;100552.59;;;34.41;42.91
52032;BME280;38044;45.148;39.604;2023-06-19T05:31:12;100538.38;;;34.80;41.52
52032;BME280;38044;45.148;39.604;2023-06-19T05:33:38;100547.78;;;35.04;40.68
52032;BME280;38044;45.148;39.604;2023-06-19T05:36:04;100548.44;;;35.08;40.99
52032;BME280;38044;45.148;39.604;2023-06-19T05:38:30;100553.44;;;35.23;41.00
52032;BME280;38044;45.148;39.604;2023-06-19T05:40:56;100550.63;;;35.13;39.99
52032;BME280;38044;45.148;39.604;2023-06-19T05:43:22;100556.88;;;34.33;42.21
52032;BME280;38044;45.148;39.604;2023-06-19T05:45:50;100554.41;;;34.13;42.03
52032;BME280;38044;45.148;39.604;2023-06-19T05:48:16;100554.31;;;34.48;40.56
52032;BME280;38044;45.148;39.604;2023-06-19T05:50:42;100557.88;;;34.70;39.85
52032;BME280;38044;45.148;39.604;2023-06-19T05:53:08;100552.06;;;35.18;40.20
52032;BME280;38044;45.148;39.604;2023-06-19T05:55:33;100565.59;;;35.38;39.32
52032;BME280;38044;45.148;39.604;2023-06-19T05:57:59;100553.16;;;35.20;41.10
52032;BME280;38044;45.148;39.604;2023-06-19T06:00:26;100557.81;;;35.33;39.76
52032;BME280;38044;45.148;39.604;2023-06-19T06:02:53;100549.44;;;35.42;39.82
52032;BME280;38044;45.148;39.604;2023-06-19T06:05:19;100542.31;;;35.41;39.68
52032;BME280;38044;45.148;39.604;2023-06-19T06:07:46;100552.22;;;35.33;40.35
52032;BME280;38044;45.148;39.604;2023-06-19T06:10:12;100549.47;;;35.51;39.31
52032;BME280;38044;45.148;39.604;2023-06-19T06:12:38;100544.84;;;35.76;39.27
52032;BME280;38044;45.148;39.604;2023-06-19T06:15:05;100540.50;;;36.02;38.51
52032;BME280;38044;45.148;39.604;2023-06-19T06:17:31;100550.03;;;35.28;39.23
52032;BME280;38044;45.148;39.604;2023-06-19T06:19:57;100550.13;;;36.20;38.44
52032;BME280;38044;45.148;39.604;2023-06-19T06:22:23;100551.38;;;36.80;38.13
52032;BME280;38044;45.148;39.604;2023-06-19T06:24:48;100539.59;;;37.66;36.81
52032;BME280;38044;45.148;39.604;2023-06-19T06:27:14;100543.94;;;38.21;36.01
52032;BME280;38044;45.148;39.604;2023-06-19T06:29:40;100532.75;;;37.10;36.19
52032;BME280;38044;45.148;39.604;2023-06-19T06:32:07;100541.91;;;37.43;36.81
52032;BME280;38044;45.148;39.604;2023-06-19T06:34:36;100549.16;;;37.74;35.68
52032;BME280;38044;45.148;39.604;2023-06-19T06:37:02;100543.38;;;37.54;36.27
52032;BME280;38044;45.148;39.604;2023-06-19T06:39:28;100539.00;;;37.05;36.85
52032;BME280;38044;45.148;39.604;2023-06-19T06:41:54;100540.91;;;36.47;37.12
52032;BME280;38044;45.148;39.604;2023-06-19T06:44:20;100543.63;;;36.04;37.82
52032;BME280;38044;45.148;39.604;2023-06-19T06:46:46;100545.22;;;35.28;38.38
52032;BME280;38044;45.148;39.604;2023-06-19T06:49:11;100543.06;;;35.23;39.70
52032;BME280;38044;45.148;39.604;2023-06-19T06:51:38;100549.66;;;34.45;40.77
52032;BME280;38044;45.148;39.604;2023-06-19T06:54:03;100541.81;;;34.30;42.66
52032;BME280;38044;45.148;39.604;2023-06-19T06:56:29;100540.88;;;34.78;42.29
52032;BME280;38044;45.148;39.604;2023-06-19T06:58:55;100533.06;;;34.63;40.54
52032;BME280;38044;45.148;39.604;2023-06-19T07:01:21;100530.63;;;34.74;39.87
52032;BME280;38044;45.148;39.604;2023-06-19T07:03:47;100536.56;;;35.45;39.56
52032;BME280;38044;45.148;39.604;2023-06-19T07:06:13;100532.59;;;36.71;37.89
52032;BME280;38044;45.148;39.604;2023-06-19T07:08:39;100540.03;;;36.83;37.38
52032;BME280;38044;45.148;39.604;2023-06-19T07:11:08;100538.22;;;37.37;37.18
52032;BME280;38044;45.148;39.604;2023-06-19T07:13:34;100527.34;;;37.30;35.61
52032;BME280;38044;45.148;39.604;2023-06-19T07:16:00;100530.28;;;37.03;36.23
52032;BME280;38044;45.148;39.604;2023-06-19T07:18:27;100537.44;;;37.61;36.45
52032;BME280;38044;45.148;39.604;2023-06-19T07:20:53;100517.81;;;38.29;35.22
52032;BME280;38044;45.148;39.604;2023-06-19T07:23:19;100529.03;;;38.29;34.91
52032;BME280;38044;45.148;39.604;2023-06-19T07:25:48;100532.22;;;38.22;35.51
52032;BME280;38044;45.148;39.604;2023-06-19T07:28:15;100524.09;;;38.24;33.85
52032;BME280;38044;45.148;39.604;2023-06-19T07:30:40;100523.41;;;39.09;34.59
52032;BME280;38044;45.148;39.604;2023-06-19T07:33:06;100530.28;;;39.29;32.42
52032;BME280;38044;45.148;39.604;2023-06-19T07:35:32;100526.19;;;38.74;31.88
52032;BME280;38044;45.148;39.604;2023-06-19T07:37:58;100532.94;;;37.78;33.04
52032;BME280;38044;45.148;39.604;2023-06-19T07:40:24;100535.69;;;35.75;35.97
52032;BME280;38044;45.148;39.604;2023-06-19T07:42:49;100517.41;;;34.66;37.76
52032;BME280;38044;45.148;39.604;2023-06-19T07:45:15;100523.13;;;35.89;36.69
52032;BME280;38044;45.148;39.604;2023-06-19T07:47:41;100525.09;;;36.86;34.57
52032;BME280;38044;45.148;39.604;2023-06-19T07:50:07;100529.56;;;37.50;34.85
52032;BME280;38044;45.148;39.604;2023-06-19T07:52:33;100520.09;;;37.48;34.24
52032;BME280;38044;45.148;39.604;2023-06-19T07:54:59;100531.09;;;37.27;34.46
52032;BME280;38044;45.148;39.604;2023-06-19T07:57:26;100526.38;;;36.76;37.47
52032;BME280;38044;45.148;39.604;2023-06-19T07:59:53;100529.06;;;37.28;36.22
52032;BME280;38044;45.148;39.604;2023-06-19T08:02:19;100528.63;;;37.20;35.72
52032;BME280;38044;45.148;39.604;2023-06-19T08:04:46;100522.47;;;36.03;37.65
52032;BME280;38044;45.148;39.604;2023-06-19T08:07:12;100528.22;;;34.95;39.23
52032;BME280;38044;45.148;39.604;2023-06-19T08:09:38;100531.28;;;33.91;40.55
52032;BME280;38044;45.148;39.604;2023-06-19T08:12:04;100524.03;;;33.71;40.74
52032;BME280;38044;45.148;39.604;2023-06-19T08:14:30;100531.41;;;34.75;39.12
52032;BME280;38044;45.148;39.604;2023-06-19T08:16:56;100533.00;;;35.35;37.56
52032;BME280;38044;45.148;39.604;2023-06-19T08:19:21;100527.75;;;36.20;37.55
52032;BME280;38044;45.148;39.604;2023-06-19T08:21:47;100522.63;;;36.18;36.58
52032;BME280;38044;45.148;39.604;2023-06-19T08:24:13;100523.50;;;36.94;35.03
52032;BME280;38044;45.148;39.604;2023-06-19T08:26:39;100525.63;;;37.09;33.73
52032;BME280;38044;45.148;39.604;2023-06-19T08:29:05;100518.13;;;35.65;35.48
52032;BME280;38044;45.148;39.604;2023-06-19T08:31:31;100526.94;;;34.87;38.46
52032;BME280;38044;45.148;39.604;2023-06-19T08:33:56;100524.41;;;34.17;39.58
52032;BME280;38044;45.148;39.604;2023-06-19T08:36:22;100530.63;;;33.86;41.17
52032;BME280;38044;45.148;39.604;2023-06-19T08:38:49;100532.31;;;33.36;41.31
52032;BME280;38044;45.148;39.604;2023-06-19T08:41:19;100528.91;;;33.19;43.72
52032;BME280;38044;45.148;39.604;2023-06-19T08:43:46;100522.28;;;33.52;42.06
52032;BME280;38044;45.148;39.604;2023-06-19T08:46:15;100519.50;;;33.52;41.73
52032;BME280;38044;45.148;39.604;2023-06-19T08:48:41;100524.41;;;33.35;41.31
52032;BME280;38044;45.148;39.604;2023-06-19T08:51:09;100516.53;;;33.68;41.03
52032;BME280;38044;45.148;39.604;2023-06-19T08:53:37;100509.09;;;33.05;41.63
52032;BME280;38044;45.148;39.604;2023-06-19T08:56:08;100515.84;;;33.29;42.88
52032;BME280;38044;45.148;39.604;2023-06-19T08:58:34;100517.31;;;34.25;36.98
52032;BME280;38044;45.148;39.604;2023-06-19T09:01:19;100521.50;;;35.24;38.98
52032;BME280;38044;45.148;39.604;2023-06-19T09:03:46;100511.47;;;35.72;36.71
52032;BME280;38044;45.148;39.604;2023-06-19T09:06:16;100492.91;;;36.30;36.07
52032;BME280;38044;45.148;39.604;2023-06-19T09:08:43;100505.22;;;36.23;33.29
52032;BME280;38044;45.148;39.604;2023-06-19T09:11:11;100490.47;;;36.04;34.34
52032;BME280;38044;45.148;39.604;2023-06-19T09:13:36;100493.91;;;35.62;35.52
52032;BME280;38044;45.148;39.604;2023-06-19T09:16:06;100481.72;;;35.19;34.89
52032;BME280;38044;45.148;39.604;2023-06-19T09:18:43;100494.41;;;35.02;37.91
52032;BME280;38044;45.148;39.604;2023-06-19T09:21:18;100480.97;;;34.69;38.37
52032;BME280;38044;45.148;39.604;2023-06-19T09:24:05;100479.59;;;35.33;37.82
52032;BME280;38044;45.148;39.604;2023-06-19T09:29:16;100485.63;;;34.41;39.59
52032;BME280;38044;45.148;39.604;2023-06-19T09:31:43;100495.97;;;33.53;41.07
52032;BME280;38044;45.148;39.604;2023-06-19T09:39:38;100498.53;;;29.79;45.75
52032;BME280;38044;45.148;39.604;2023-06-19T09:42:07;100507.59;;;28.51;49.29
52032;BME280;38044;45.148;39.604;2023-06-19T09:44:40;100506.56;;;27.07;54.66
52032;BME280;38044;45.148;39.604;2023-06-19T09:47:25;100502.38;;;25.93;59.04
52032;BME280;38044;45.148;39.604;2023-06-19T09:49:56;100509.38;;;24.83;64.31
52032;BME280;38044;45.148;39.604;2023-06-19T09:52:23;100506.16;;;23.82;67.92
52032;BME280;38044;45.148;39.604;2023-06-19T09:57:38;100485.44;;;22.62;71.45
52032;BME280;38044;45.148;39.604;2023-06-19T10:00:24;100488.19;;;22.62;72.95
52032;BME280;38044;45.148;39.604;2023-06-19T10:02:56;100485.59;;;23.14;76.20
52032;BME280;38044;45.148;39.604;2023-06-19T10:05:42;100473.63;;;23.81;73.37
52032;BME280;38044;45.148;39.604;2023-06-19T10:08:08;100466.66;;;24.01;71.89
52032;BME280;38044;45.148;39.604;2023-06-19T10:10:46;100455.44;;;24.42;70.87
52032;BME280;38044;45.148;39.604;2023-06-19T10:13:16;100461.88;;;25.00;71.38
52032;BME280;38044;45.148;39.604;2023-06-19T10:15:43;100448.16;;;25.39;71.65
52032;BME280;38044;45.148;39.604;2023-06-19T10:18:18;100462.22;;;25.99;69.67
52032;BME280;38044;45.148;39.604;2023-06-19T10:20:45;100458.97;;;26.25;67.73
52032;BME280;38044;45.148;39.604;2023-06-19T10:25:59;100441.19;;;27.52;67.81
52032;BME280;38044;45.148;39.604;2023-06-19T10:28:46;100432.63;;;27.81;64.78
52032;BME280;38044;45.148;39.604;2023-06-19T10:31:13;100433.38;;;27.85;65.72
52032;BME280;38044;45.148;39.604;2023-06-19T10:33:57;100431.09;;;27.73;64.31
52032;BME280;38044;45.148;39.604;2023-06-19T10:36:24;100427.59;;;28.06;64.92
52032;BME280;38044;45.148;39.604;2023-06-19T10:38:53;100422.06;;;28.68;64.06
52032;BME280;38044;45.148;39.604;2023-06-19T10:41:21;100413.31;;;28.96;61.37
52032;BME280;38044;45.148;39.604;2023-06-19T10:44:07;100416.50;;;29.18;58.01
52032;BME280;38044;45.148;39.604;2023-06-19T10:46:57;100420.91;;;29.39;58.26
52032;BME280;38044;45.148;39.604;2023-06-19T10:49:25;100415.09;;;29.54;56.15
52032;BME280;38044;45.148;39.604;2023-06-19T10:51:51;100413.88;;;29.55;54.52
52032;BME280;38044;45.148;39.604;2023-06-19T10:54:19;100417.09;;;29.53;54.26
52032;BME280;38044;45.148;39.604;2023-06-19T10:57:04;100402.84;;;29.75;54.24
52032;BME280;38044;45.148;39.604;2023-06-19T10:59:30;100398.50;;;29.94;50.96
52032;BME280;38044;45.148;39.604;2023-06-19T11:01:56;100404.75;;;29.78;49.66
52032;BME280;38044;45.148;39.604;2023-06-19T11:04:22;100397.59;;;29.80;50.49
52032;BME280;38044;45.148;39.604;2023-06-19T11:07:07;100399.13;;;30.01;48.93
52032;BME280;38044;45.148;39.604;2023-06-19T11:12:21;100400.31;;;30.20;48.69
52032;BME280;38044;45.148;39.604;2023-06-19T11:17:32;100403.66;;;29.52;50.54
52032;BME280;38044;45.148;39.604;2023-06-19T11:19:58;100396.25;;;29.25;51.71
52032;BME280;38044;45.148;39.604;2023-06-19T11:22:36;100393.59;;;29.18;52.18
52032;BME280;38044;45.148;39.604;2023-06-19T11:25:03;100405.78;;;28.97;52.67
52032;BME280;38044;45.148;39.604;2023-06-19T11:27:30;100403.63;;;28.85;52.41
52032;BME280;38044;45.148;39.604;2023-06-19T11:29:58;100400.41;;;28.63;52.11
52032;BME280;38044;45.148;39.604;2023-06-19T11:32:30;100390.53;;;28.62;52.62
52032;BME280;38044;45.148;39.604;2023-06-19T11:34:57;100397.63;;;28.63;52.19
52032;BME280;38044;45.148;39.604;2023-06-19T11:37:23;100405.69;;;28.54;51.45
52032;BME280;38044;45.148;39.604;2023-06-19T11:39:50;100386.84;;;28.45;51.91
52032;BME280;38044;45.148;39.604;2023-06-19T11:42:17;100391.31;;;28.62;51.54
52032;BME280;38044;45.148;39.604;2023-06-19T11:44:56;100392.09;;;28.63;51.57
52032;BME280;38044;45.148;39.604;2023-06-19T11:47:42;100398.88;;;28.85;51.67
52032;BME280;38044;45.148;39.604;2023-06-19T11:50:08;100393.84;;;29.04;50.08
52032;BME280;38044;45.148;39.604;2023-06-19T11:52:35;100393.72;;;29.11;50.97
52032;BME280;38044;45.148;39.604;2023-06-19T11:57:45;100404.47;;;29.72;49.78
52032;BME280;38044;45.148;39.604;2023-06-19T12:00:16;100385.63;;;30.03;48.90
52032;BME280;38044;45.148;39.604;2023-06-19T12:03:01;100403.59;;;30.15;47.84
52032;BME280;38044;45.148;39.604;2023-06-19T12:05:27;100402.72;;;30.18;48.46
52032;BME280;38044;45.148;39.604;2023-06-19T12:07:53;100385.47;;;30.30;48.87
52032;BME280;38044;45.148;39.604;2023-06-19T12:10:19;100393.69;;;30.34;47.25
52032;BME280;38044;45.148;39.604;2023-06-19T12:13:03;100396.03;;;30.36;49.25
52032;BME280;38044;45.148;39.604;2023-06-19T12:15:29;100401.09;;;30.57;48.79
52032;BME280;38044;45.148;39.604;2023-06-19T12:17:55;100393.09;;;30.43;47.01
52032;BME280;38044;45.148;39.604;2023-06-19T12:20:23;100402.69;;;30.22;45.50
52032;BME280;38044;45.148;39.604;2023-06-19T12:22:49;100399.75;;;30.09;46.28
52032;BME280;38044;45.148;39.604;2023-06-19T12:25:15;100383.44;;;29.95;44.94
52032;BME280;38044;45.148;39.604;2023-06-19T12:27:41;100391.47;;;29.69;44.71
52032;BME280;38044;45.148;39.604;2023-06-19T12:30:07;100399.78;;;29.26;47.44
52032;BME280;38044;45.148;39.604;2023-06-19T12:32:33;100403.09;;;29.17;47.30
52032;BME280;38044;45.148;39.604;2023-06-19T12:34:59;100411.66;;;29.03;47.25
52032;BME280;38044;45.148;39.604;2023-06-19T12:37:28;100422.91;;;28.88;47.24
52032;BME280;38044;45.148;39.604;2023-06-19T12:39:53;100426.84;;;28.64;47.92
52032;BME280;38044;45.148;39.604;2023-06-19T12:42:19;100422.34;;;28.46;47.08
52032;BME280;38044;45.148;39.604;2023-06-19T12:44:45;100440.78;;;28.26;46.42
52032;BME280;38044;45.148;39.604;2023-06-19T12:47:11;100462.56;;;27.41;51.41
52032;BME280;38044;45.148;39.604;2023-06-19T12:49:37;100467.72;;;26.02;59.20
52032;BME280;38044;45.148;39.604;2023-06-19T12:52:04;100473.78;;;24.20;67.39
52032;BME280;38044;45.148;39.604;2023-06-19T12:54:29;100502.13;;;22.50;78.40
52032;BME280;38044;45.148;39.604;2023-06-19T12:56:55;100509.34;;;21.52;85.33
52032;BME280;38044;45.148;39.604;2023-06-19T12:59:21;100506.47;;;20.79;87.94
52032;BME280;38044;45.148;39.604;2023-06-19T13:01:47;100517.81;;;20.42;92.93
52032;BME280;38044;45.148;39.604;2023-06-19T13:04:13;100495.44;;;20.37;98.67